sensor_id;sensor_type;location;lat;lon;timestamp;pressure;altitude;pressure_sealevel;temperature
20733;BMP180;10527;52.124;5.196;2022-09-01T00:00:04;102114.00;;;27.80
20733;BMP180;10527;52.124;5.196;2022-09-01T00:02:33;102104.00;;;27.70
20733;BMP180;10527;52.124;5.196;2022-09-01T00:05:01;102104.00;;;27.70
20733;BMP180;10527;52.124;5.196;2022-09-01T00:07:30;102103.00;;;27.70
20733;BMP180;10527;52.124;5.196;2022-09-01T00:09:58;102105.00;;;27.60
20733;BMP180;10527;52.124;5.196;2022-09-01T00:12:27;102096.00;;;27.60
20733;BMP180;10527;52.124;5.196;2022-09-01T00:14:54;102102.00;;;27.60
20733;BMP180;10527;52.124;5.196;2022-09-01T00:17:21;102104.00;;;27.50
20733;BMP180;10527;52.124;5.196;2022-09-01T00:19:48;102098.00;;;27.50
20733;BMP180;10527;52.124;5.196;2022-09-01T00:22:15;102088.00;;;27.50
20733;BMP180;10527;52.124;5.196;2022-09-01T00:24:42;102094.00;;;27.40
20733;BMP180;10527;52.124;5.196;2022-09-01T00:27:09;102091.00;;;27.40
20733;BMP180;10527;52.124;5.196;2022-09-01T00:29:36;102101.00;;;27.40
20733;BMP180;10527;52.124;5.196;2022-09-01T00:32:09;102101.00;;;27.30
20733;BMP180;10527;52.124;5.196;2022-09-01T00:34:36;102089.00;;;27.30
20733;BMP180;10527;52.124;5.196;2022-09-01T00:37:02;102093.00;;;27.20
20733;BMP180;10527;52.124;5.196;2022-09-01T00:39:29;102102.00;;;27.20
20733;BMP180;10527;52.124;5.196;2022-09-01T00:41:56;102101.00;;;27.20
20733;BMP180;10527;52.124;5.196;2022-09-01T00:44:25;102094.00;;;27.20
20733;BMP180;10527;52.124;5.196;2022-09-01T00:46:58;102093.00;;;27.10
20733;BMP180;10527;52.124;5.196;2022-09-01T00:49:31;102081.00;;;27.10
20733;BMP180;10527;52.124;5.196;2022-09-01T00:52:12;102091.00;;;27.10
20733;BMP180;10527;52.124;5.196;2022-09-01T00:54:46;102084.00;;;27.00
20733;BMP180;10527;52.124;5.196;2022-09-01T00:57:14;102085.00;;;27.00
20733;BMP180;10527;52.124;5.196;2022-09-01T00:59:59;102079.00;;;27.00
20733;BMP180;10527;52.124;5.196;2022-09-01T01:02:26;102068.00;;;26.90
20733;BMP180;10527;52.124;5.196;2022-09-01T01:04:53;102074.00;;;26.90
20733;BMP180;10527;52.124;5.196;2022-09-01T01:07:24;102081.00;;;26.90
20733;BMP180;10527;52.124;5.196;2022-09-01T01:09:53;102074.00;;;26.90
20733;BMP180;10527;52.124;5.196;2022-09-01T01:12:20;102073.00;;;26.80
20733;BMP180;10527;52.124;5.196;2022-09-01T01:14:48;102077.00;;;26.80
20733;BMP180;10527;52.124;5.196;2022-09-01T01:17:21;102071.00;;;26.80
20733;BMP180;10527;52.124;5.196;2022-09-01T01:19:54;102075.00;;;26.80
20733;BMP180;10527;52.124;5.196;2022-09-01T01:23:29;102072.00;;;26.70
20733;BMP180;10527;52.124;5.196;2022-09-01T01:26:08;102065.00;;;26.60
20733;BMP180;10527;52.124;5.196;2022-09-01T01:29:15;102072.00;;;26.60
20733;BMP180;10527;52.124;5.196;2022-09-01T01:31:44;102065.00;;;26.50
20733;BMP180;10527;52.124;5.196;2022-09-01T01:34:15;102059.00;;;26.50
20733;BMP180;10527;52.124;5.196;2022-09-01T01:36:43;102059.00;;;26.50
20733;BMP180;10527;52.124;5.196;2022-09-01T01:39:22;102061.00;;;26.50
20733;BMP180;10527;52.124;5.196;2022-09-01T01:41:53;102063.00;;;26.50
20733;BMP180;10527;52.124;5.196;2022-09-01T01:44:24;102059.00;;;26.50
20733;BMP180;10527;52.124;5.196;2022-09-01T01:47:32;102062.00;;;26.50
20733;BMP180;10527;52.124;5.196;2022-09-01T01:49:58;102065.00;;;26.50
20733;BMP180;10527;52.124;5.196;2022-09-01T01:52:25;102061.00;;;26.50
20733;BMP180;10527;52.124;5.196;2022-09-01T01:54:52;102068.00;;;26.50
20733;BMP180;10527;52.124;5.196;2022-09-01T01:57:19;102067.00;;;26.40
20733;BMP180;10527;52.124;5.196;2022-09-01T01:59:46;102062.00;;;26.50
20733;BMP180;10527;52.124;5.196;2022-09-01T02:02:13;102060.00;;;26.40
20733;BMP180;10527;52.124;5.196;2022-09-01T02:04:40;102063.00;;;26.40
20733;BMP180;10527;52.124;5.196;2022-09-01T02:07:12;102067.00;;;26.40
20733;BMP180;10527;52.124;5.196;2022-09-01T02:09:53;102065.00;;;26.40
20733;BMP180;10527;52.124;5.196;2022-09-01T02:12:20;102069.00;;;26.40
20733;BMP180;10527;52.124;5.196;2022-09-01T02:14:50;102065.00;;;26.40
20733;BMP180;10527;52.124;5.196;2022-09-01T02:17:24;102062.00;;;26.40
20733;BMP180;10527;52.124;5.196;2022-09-01T02:19:51;102064.00;;;26.40
20733;BMP180;10527;52.124;5.196;2022-09-01T02:22:22;102068.00;;;26.30
20733;BMP180;10527;52.124;5.196;2022-09-01T02:24:49;102064.00;;;26.30
20733;BMP180;10527;52.124;5.196;2022-09-01T02:27:18;102061.00;;;26.30
20733;BMP180;10527;52.124;5.196;2022-09-01T02:29:50;102056.00;;;26.30
20733;BMP180;10527;52.124;5.196;2022-09-01T02:32:21;102061.00;;;26.40
20733;BMP180;10527;52.124;5.196;2022-09-01T02:34:49;102057.00;;;26.40
20733;BMP180;10527;52.124;5.196;2022-09-01T02:37:20;102067.00;;;26.40
20733;BMP180;10527;52.124;5.196;2022-09-01T02:39:51;102064.00;;;26.40
20733;BMP180;10527;52.124;5.196;2022-09-01T02:42:25;102060.00;;;26.40
20733;BMP180;10527;52.124;5.196;2022-09-01T02:44:55;102066.00;;;26.30
20733;BMP180;10527;52.124;5.196;2022-09-01T02:47:24;102063.00;;;26.30
20733;BMP180;10527;52.124;5.196;2022-09-01T02:49:55;102063.00;;;26.30
20733;BMP180;10527;52.124;5.196;2022-09-01T02:52:23;102057.00;;;26.30
20733;BMP180;10527;52.124;5.196;2022-09-01T02:54:50;102062.00;;;26.30
20733;BMP180;10527;52.124;5.196;2022-09-01T02:57:17;102068.00;;;26.20
20733;BMP180;10527;52.124;5.196;2022-09-01T02:59:44;102054.00;;;26.20
20733;BMP180;10527;52.124;5.196;2022-09-01T03:02:13;102055.00;;;26.20
20733;BMP180;10527;52.124;5.196;2022-09-01T03:04:39;102050.00;;;26.10
20733;BMP180;10527;52.124;5.196;2022-09-01T03:07:07;102053.00;;;26.10
20733;BMP180;10527;52.124;5.196;2022-09-01T03:09:34;102056.00;;;26.20
20733;BMP180;10527;52.124;5.196;2022-09-01T03:12:02;102050.00;;;26.10
20733;BMP180;10527;52.124;5.196;2022-09-01T03:14:31;102056.00;;;26.10
20733;BMP180;10527;52.124;5.196;2022-09-01T03:16:58;102055.00;;;26.10
20733;BMP180;10527;52.124;5.196;2022-09-01T03:19:26;102060.00;;;26.00
20733;BMP180;10527;52.124;5.196;2022-09-01T03:21:56;102051.00;;;26.00
20733;BMP180;10527;52.124;5.196;2022-09-01T03:24:25;102050.00;;;26.00
20733;BMP180;10527;52.124;5.196;2022-09-01T03:26:52;102049.00;;;26.00
20733;BMP180;10527;52.124;5.196;2022-09-01T03:29:19;102052.00;;;25.90
20733;BMP180;10527;52.124;5.196;2022-09-01T03:31:48;102045.00;;;25.90
20733;BMP180;10527;52.124;5.196;2022-09-01T03:34:15;102050.00;;;25.90
20733;BMP180;10527;52.124;5.196;2022-09-01T03:36:46;102046.00;;;25.80
20733;BMP180;10527;52.124;5.196;2022-09-01T03:39:18;102038.00;;;25.80
20733;BMP180;10527;52.124;5.196;2022-09-01T03:41:45;102046.00;;;25.80
20733;BMP180;10527;52.124;5.196;2022-09-01T03:44:13;102038.00;;;25.80
20733;BMP180;10527;52.124;5.196;2022-09-01T03:46:43;102041.00;;;25.80
20733;BMP180;10527;52.124;5.196;2022-09-01T03:49:10;102038.00;;;25.80
20733;BMP180;10527;52.124;5.196;2022-09-01T03:51:45;102042.00;;;25.80
20733;BMP180;10527;52.124;5.196;2022-09-01T03:54:12;102037.00;;;25.80
20733;BMP180;10527;52.124;5.196;2022-09-01T03:56:39;102031.00;;;25.80
20733;BMP180;10527;52.124;5.196;2022-09-01T03:59:07;102031.00;;;25.80
20733;BMP180;10527;52.124;5.196;2022-09-01T04:01:34;102037.00;;;25.70
20733;BMP180;10527;52.124;5.196;2022-09-01T04:04:04;102028.00;;;25.70
20733;BMP180;10527;52.124;5.196;2022-09-01T04:06:32;102037.00;;;25.70
20733;BMP180;10527;52.124;5.196;2022-09-01T04:08:59;102027.00;;;25.70
20733;BMP180;10527;52.124;5.196;2022-09-01T04:11:30;102029.00;;;25.70
20733;BMP180;10527;52.124;5.196;2022-09-01T04:13:59;102035.00;;;25.70
20733;BMP180;10527;52.124;5.196;2022-09-01T04:16:31;102031.00;;;25.70
20733;BMP180;10527;52.124;5.196;2022-09-01T04:19:24;102036.00;;;25.60
20733;BMP180;10527;52.124;5.196;2022-09-01T04:21:59;102030.00;;;25.60
20733;BMP180;10527;52.124;5.196;2022-09-01T04:24:28;102030.00;;;25.60
20733;BMP180;10527;52.124;5.196;2022-09-01T04:27:00;102028.00;;;25.70
20733;BMP180;10527;52.124;5.196;2022-09-01T04:29:30;102033.00;;;25.60
20733;BMP180;10527;52.124;5.196;2022-09-01T04:32:03;102029.00;;;25.60
20733;BMP180;10527;52.124;5.196;2022-09-01T04:34:37;102030.00;;;25.60
20733;BMP180;10527;52.124;5.196;2022-09-01T04:37:17;102036.00;;;25.50
20733;BMP180;10527;52.124;5.196;2022-09-01T04:39:52;102033.00;;;25.50
20733;BMP180;10527;52.124;5.196;2022-09-01T04:42:26;102028.00;;;25.40
20733;BMP180;10527;52.124;5.196;2022-09-01T04:44:55;102034.00;;;25.40
20733;BMP180;10527;52.124;5.196;2022-09-01T04:47:26;102027.00;;;25.40
20733;BMP180;10527;52.124;5.196;2022-09-01T04:50:05;102026.00;;;25.40
20733;BMP180;10527;52.124;5.196;2022-09-01T04:52:40;102029.00;;;25.40
20733;BMP180;10527;52.124;5.196;2022-09-01T04:55:13;102025.00;;;25.40
20733;BMP180;10527;52.124;5.196;2022-09-01T04:57:47;102022.00;;;25.40
20733;BMP180;10527;52.124;5.196;2022-09-01T05:00:20;102026.00;;;25.40
20733;BMP180;10527;52.124;5.196;2022-09-01T05:02:58;102032.00;;;25.30
20733;BMP180;10527;52.124;5.196;2022-09-01T05:05:41;102026.00;;;25.30
20733;BMP180;10527;52.124;5.196;2022-09-01T05:08:15;102029.00;;;25.30
20733;BMP180;10527;52.124;5.196;2022-09-01T05:10:52;102024.00;;;25.20
20733;BMP180;10527;52.124;5.196;2022-09-01T05:13:21;102035.00;;;25.20
20733;BMP180;10527;52.124;5.196;2022-09-01T05:16:01;102037.00;;;25.20
20733;BMP180;10527;52.124;5.196;2022-09-01T05:18:29;102038.00;;;25.20
20733;BMP180;10527;52.124;5.196;2022-09-01T05:20:56;102038.00;;;25.20
20733;BMP180;10527;52.124;5.196;2022-09-01T05:23:23;102034.00;;;25.20
20733;BMP180;10527;52.124;5.196;2022-09-01T05:25:52;102037.00;;;25.20
20733;BMP180;10527;52.124;5.196;2022-09-01T05:28:22;102041.00;;;25.20
20733;BMP180;10527;52.124;5.196;2022-09-01T05:30:51;102042.00;;;25.20
20733;BMP180;10527;52.124;5.196;2022-09-01T05:33:20;102042.00;;;25.20
20733;BMP180;10527;52.124;5.196;2022-09-01T05:35:57;102038.00;;;25.20
20733;BMP180;10527;52.124;5.196;2022-09-01T05:38:27;102030.00;;;25.20
20733;BMP180;10527;52.124;5.196;2022-09-01T05:41:04;102039.00;;;25.20
20733;BMP180;10527;52.124;5.196;2022-09-01T05:43:34;102043.00;;;25.20
20733;BMP180;10527;52.124;5.196;2022-09-01T05:46:07;102035.00;;;25.20
20733;BMP180;10527;52.124;5.196;2022-09-01T05:48:35;102046.00;;;25.20
20733;BMP180;10527;52.124;5.196;2022-09-01T05:51:08;102042.00;;;25.30
20733;BMP180;10527;52.124;5.196;2022-09-01T05:53:56;102036.00;;;25.30
20733;BMP180;10527;52.124;5.196;2022-09-01T05:56:29;102037.00;;;25.30
20733;BMP180;10527;52.124;5.196;2022-09-01T05:59:00;102044.00;;;25.30
20733;BMP180;10527;52.124;5.196;2022-09-01T06:01:48;102045.00;;;25.40
20733;BMP180;10527;52.124;5.196;2022-09-01T06:04:17;102044.00;;;25.40
20733;BMP180;10527;52.124;5.196;2022-09-01T06:06:46;102040.00;;;25.40
20733;BMP180;10527;52.124;5.196;2022-09-01T06:09:38;102048.00;;;25.40
20733;BMP180;10527;52.124;5.196;2022-09-01T06:12:05;102040.00;;;25.50
20733;BMP180;10527;52.124;5.196;2022-09-01T06:14:33;102053.00;;;25.50
20733;BMP180;10527;52.124;5.196;2022-09-01T06:16:59;102040.00;;;25.50
20733;BMP180;10527;52.124;5.196;2022-09-01T06:19:27;102039.00;;;25.50
20733;BMP180;10527;52.124;5.196;2022-09-01T06:21:54;102045.00;;;25.50
20733;BMP180;10527;52.124;5.196;2022-09-01T06:24:21;102048.00;;;25.50
20733;BMP180;10527;52.124;5.196;2022-09-01T06:26:47;102045.00;;;25.60
20733;BMP180;10527;52.124;5.196;2022-09-01T06:29:17;102048.00;;;25.60
20733;BMP180;10527;52.124;5.196;2022-09-01T06:31:46;102047.00;;;25.70
20733;BMP180;10527;52.124;5.196;2022-09-01T06:34:18;102057.00;;;25.70
20733;BMP180;10527;52.124;5.196;2022-09-01T06:36:47;102054.00;;;25.70
20733;BMP180;10527;52.124;5.196;2022-09-01T06:39:15;102054.00;;;25.70
20733;BMP180;10527;52.124;5.196;2022-09-01T06:41:49;102053.00;;;25.70
20733;BMP180;10527;52.124;5.196;2022-09-01T06:44:20;102055.00;;;25.70
20733;BMP180;10527;52.124;5.196;2022-09-01T06:46:50;102060.00;;;25.70
20733;BMP180;10527;52.124;5.196;2022-09-01T06:49:20;102064.00;;;25.80
20733;BMP180;10527;52.124;5.196;2022-09-01T06:52:02;102066.00;;;25.80
20733;BMP180;10527;52.124;5.196;2022-09-01T06:54:38;102056.00;;;25.80
20733;BMP180;10527;52.124;5.196;2022-09-01T06:57:10;102064.00;;;25.80
20733;BMP180;10527;52.124;5.196;2022-09-01T06:59:56;102066.00;;;25.90
20733;BMP180;10527;52.124;5.196;2022-09-01T07:02:23;102067.00;;;25.90
20733;BMP180;10527;52.124;5.196;2022-09-01T07:04:53;102068.00;;;26.00
20733;BMP180;10527;52.124;5.196;2022-09-01T07:07:20;102070.00;;;26.00
20733;BMP180;10527;52.124;5.196;2022-09-01T07:10:09;102066.00;;;26.00
20733;BMP180;10527;52.124;5.196;2022-09-01T07:12:51;102074.00;;;26.00
20733;BMP180;10527;52.124;5.196;2022-09-01T07:15:41;102070.00;;;26.10
20733;BMP180;10527;52.124;5.196;2022-09-01T07:18:29;102074.00;;;26.10
20733;BMP180;10527;52.124;5.196;2022-09-01T07:20:58;102072.00;;;26.20
20733;BMP180;10527;52.124;5.196;2022-09-01T07:23:46;102073.00;;;26.20
20733;BMP180;10527;52.124;5.196;2022-09-01T07:26:34;102074.00;;;26.30
20733;BMP180;10527;52.124;5.196;2022-09-01T07:29:10;102064.00;;;26.30
20733;BMP180;10527;52.124;5.196;2022-09-01T07:31:40;102069.00;;;26.40
20733;BMP180;10527;52.124;5.196;2022-09-01T07:34:29;102064.00;;;26.40
20733;BMP180;10527;52.124;5.196;2022-09-01T07:37:05;102064.00;;;26.40
20733;BMP180;10527;52.124;5.196;2022-09-01T07:39:52;102070.00;;;26.50
20733;BMP180;10527;52.124;5.196;2022-09-01T07:42:21;102068.00;;;26.50
20733;BMP180;10527;52.124;5.196;2022-09-01T07:45:17;102070.00;;;26.60
20733;BMP180;10527;52.124;5.196;2022-09-01T07:47:52;102067.00;;;26.70
20733;BMP180;10527;52.124;5.196;2022-09-01T07:50:20;102074.00;;;26.80
20733;BMP180;10527;52.124;5.196;2022-09-01T07:53:07;102064.00;;;26.80
20733;BMP180;10527;52.124;5.196;2022-09-01T07:55:39;102066.00;;;26.90
20733;BMP180;10527;52.124;5.196;2022-09-01T07:58:13;102068.00;;;26.90
20733;BMP180;10527;52.124;5.196;2022-09-01T08:00:41;102079.00;;;27.00
20733;BMP180;10527;52.124;5.196;2022-09-01T08:03:13;102073.00;;;27.10
20733;BMP180;10527;52.124;5.196;2022-09-01T08:05:40;102072.00;;;27.20
20733;BMP180;10527;52.124;5.196;2022-09-01T08:08:07;102067.00;;;27.30
20733;BMP180;10527;52.124;5.196;2022-09-01T08:10:54;102073.00;;;27.60
20733;BMP180;10527;52.124;5.196;2022-09-01T08:13:31;102074.00;;;27.90
20733;BMP180;10527;52.124;5.196;2022-09-01T08:16:08;102080.00;;;28.40
20733;BMP180;10527;52.124;5.196;2022-09-01T08:18:44;102069.00;;;28.90
20733;BMP180;10527;52.124;5.196;2022-09-01T08:21:18;102071.00;;;29.40
20733;BMP180;10527;52.124;5.196;2022-09-01T08:23:52;102070.00;;;29.90
20733;BMP180;10527;52.124;5.196;2022-09-01T08:26:24;102086.00;;;30.40
20733;BMP180;10527;52.124;5.196;2022-09-01T08:28:52;102081.00;;;30.90
20733;BMP180;10527;52.124;5.196;2022-09-01T08:31:23;102077.00;;;31.20
20733;BMP180;10527;52.124;5.196;2022-09-01T08:33:56;102077.00;;;31.60
20733;BMP180;10527;52.124;5.196;2022-09-01T08:36:23;102084.00;;;31.90
20733;BMP180;10527;52.124;5.196;2022-09-01T08:38:52;102091.00;;;32.30
20733;BMP180;10527;52.124;5.196;2022-09-01T08:44:36;102083.00;;;33.10
20733;BMP180;10527;52.124;5.196;2022-09-01T08:47:12;102084.00;;;33.30
20733;BMP180;10527;52.124;5.196;2022-09-01T08:49:42;102075.00;;;33.50
20733;BMP180;10527;52.124;5.196;2022-09-01T08:52:30;102081.00;;;33.80
20733;BMP180;10527;52.124;5.196;2022-09-01T08:55:15;102084.00;;;34.00
20733;BMP180;10527;52.124;5.196;2022-09-01T08:57:46;102074.00;;;34.10
20733;BMP180;10527;52.124;5.196;2022-09-01T09:00:18;102079.00;;;34.30
20733;BMP180;10527;52.124;5.196;2022-09-01T09:03:05;102073.00;;;34.50
20733;BMP180;10527;52.124;5.196;2022-09-01T09:17:08;102079.00;;;34.80
20733;BMP180;10527;52.124;5.196;2022-09-01T09:19:43;102078.00;;;34.90
20733;BMP180;10527;52.124;5.196;2022-09-01T09:22:14;102074.00;;;34.90
20733;BMP180;10527;52.124;5.196;2022-09-01T09:24:58;102077.00;;;34.90
20733;BMP180;10527;52.124;5.196;2022-09-01T09:27:32;102070.00;;;34.90
20733;BMP180;10527;52.124;5.196;2022-09-01T09:30:08;102065.00;;;34.90
20733;BMP180;10527;52.124;5.196;2022-09-01T09:35:44;102055.00;;;34.90
20733;BMP180;10527;52.124;5.196;2022-09-01T09:41:20;102047.00;;;34.90
20733;BMP180;10527;52.124;5.196;2022-09-01T09:51:39;102044.00;;;34.80
20733;BMP180;10527;52.124;5.196;2022-09-01T09:54:20;102038.00;;;34.70
20733;BMP180;10527;52.124;5.196;2022-09-01T09:59:58;102039.00;;;34.70
20733;BMP180;10527;52.124;5.196;2022-09-01T10:02:36;102034.00;;;34.60
20733;BMP180;10527;52.124;5.196;2022-09-01T10:05:31;102032.00;;;34.60
20733;BMP180;10527;52.124;5.196;2022-09-01T10:08:00;102033.00;;;34.60
20733;BMP180;10527;52.124;5.196;2022-09-01T10:10:43;102034.00;;;34.60
20733;BMP180;10527;52.124;5.196;2022-09-01T10:13:25;102024.00;;;34.50
20733;BMP180;10527;52.124;5.196;2022-09-01T10:16:01;102025.00;;;34.50
20733;BMP180;10527;52.124;5.196;2022-09-01T10:18:42;102028.00;;;34.50
20733;BMP180;10527;52.124;5.196;2022-09-01T10:21:37;102019.00;;;34.50
20733;BMP180;10527;52.124;5.196;2022-09-01T10:24:31;102028.00;;;34.50
20733;BMP180;10527;52.124;5.196;2022-09-01T10:27:19;102023.00;;;34.40
20733;BMP180;10527;52.124;5.196;2022-09-01T10:30:03;102021.00;;;34.40
20733;BMP180;10527;52.124;5.196;2022-09-01T10:35:32;102023.00;;;34.40
20733;BMP180;10527;52.124;5.196;2022-09-01T10:38:05;102020.00;;;34.40
20733;BMP180;10527;52.124;5.196;2022-09-01T10:40:40;102018.00;;;34.40
20733;BMP180;10527;52.124;5.196;2022-09-01T10:43:35;102018.00;;;34.40
20733;BMP180;10527;52.124;5.196;2022-09-01T10:48:57;102017.00;;;34.50
20733;BMP180;10527;52.124;5.196;2022-09-01T10:54:04;102013.00;;;34.50
20733;BMP180;10527;52.124;5.196;2022-09-01T10:56:48;102000.00;;;34.50
20733;BMP180;10527;52.124;5.196;2022-09-01T10:59:25;102011.00;;;34.50
20733;BMP180;10527;52.124;5.196;2022-09-01T11:02:11;102011.00;;;34.60
20733;BMP180;10527;52.124;5.196;2022-09-01T11:07:34;102006.00;;;34.60
20733;BMP180;10527;52.124;5.196;2022-09-01T11:10:43;102002.00;;;34.70
20733;BMP180;10527;52.124;5.196;2022-09-01T11:13:45;102011.00;;;34.80
20733;BMP180;10527;52.124;5.196;2022-09-01T11:16:32;102006.00;;;34.80
20733;BMP180;10527;52.124;5.196;2022-09-01T11:19:35;102009.00;;;34.90
20733;BMP180;10527;52.124;5.196;2022-09-01T11:27:49;102003.00;;;35.10
20733;BMP180;10527;52.124;5.196;2022-09-01T11:30:07;101997.00;;;35.20
20733;BMP180;10527;52.124;5.196;2022-09-01T11:32:37;101990.00;;;35.20
20733;BMP180;10527;52.124;5.196;2022-09-01T11:35:21;101984.00;;;35.30
20733;BMP180;10527;52.124;5.196;2022-09-01T11:37:54;101989.00;;;35.40
20733;BMP180;10527;52.124;5.196;2022-09-01T11:40:34;101989.00;;;35.50
20733;BMP180;10527;52.124;5.196;2022-09-01T11:43:09;101987.00;;;35.60
20733;BMP180;10527;52.124;5.196;2022-09-01T11:46:16;101985.00;;;35.60
20733;BMP180;10527;52.124;5.196;2022-09-01T11:48:47;101984.00;;;35.60
20733;BMP180;10527;52.124;5.196;2022-09-01T11:51:18;101975.00;;;35.70
20733;BMP180;10527;52.124;5.196;2022-09-01T11:53:47;101971.00;;;35.70
20733;BMP180;10527;52.124;5.196;2022-09-01T11:56:25;101973.00;;;35.70
20733;BMP180;10527;52.124;5.196;2022-09-01T11:58:53;101963.00;;;35.80
20733;BMP180;10527;52.124;5.196;2022-09-01T12:01:31;101963.00;;;35.80
20733;BMP180;10527;52.124;5.196;2022-09-01T12:07:12;101963.00;;;35.90
20733;BMP180;10527;52.124;5.196;2022-09-01T12:09:46;101960.00;;;35.90
20733;BMP180;10527;52.124;5.196;2022-09-01T12:12:38;101959.00;;;36.00
20733;BMP180;10527;52.124;5.196;2022-09-01T12:15:32;101957.00;;;36.00
20733;BMP180;10527;52.124;5.196;2022-09-01T12:18:22;101959.00;;;36.00
20733;BMP180;10527;52.124;5.196;2022-09-01T12:20:51;101969.00;;;36.00
20733;BMP180;10527;52.124;5.196;2022-09-01T12:23:43;101963.00;;;36.00
20733;BMP180;10527;52.124;5.196;2022-09-01T12:26:32;101957.00;;;36.10
20733;BMP180;10527;52.124;5.196;2022-09-01T12:29:00;101957.00;;;36.10
20733;BMP180;10527;52.124;5.196;2022-09-01T12:31:27;101952.00;;;36.10
20733;BMP180;10527;52.124;5.196;2022-09-01T12:33:55;101947.00;;;36.10
20733;BMP180;10527;52.124;5.196;2022-09-01T12:36:27;101956.00;;;36.10
20733;BMP180;10527;52.124;5.196;2022-09-01T12:39:20;101953.00;;;36.20
20733;BMP180;10527;52.124;5.196;2022-09-01T12:42:09;101955.00;;;36.30
20733;BMP180;10527;52.124;5.196;2022-09-01T12:47:13;101952.00;;;36.40
20733;BMP180;10527;52.124;5.196;2022-09-01T12:53:00;101942.00;;;36.40
20733;BMP180;10527;52.124;5.196;2022-09-01T12:55:35;101950.00;;;36.50
20733;BMP180;10527;52.124;5.196;2022-09-01T12:58:43;101937.00;;;36.50
20733;BMP180;10527;52.124;5.196;2022-09-01T13:01:26;101935.00;;;36.50
20733;BMP180;10527;52.124;5.196;2022-09-01T13:06:33;101941.00;;;36.60
20733;BMP180;10527;52.124;5.196;2022-09-01T13:09:00;101948.00;;;36.60
20733;BMP180;10527;52.124;5.196;2022-09-01T13:11:27;101937.00;;;36.60
20733;BMP180;10527;52.124;5.196;2022-09-01T13:14:15;101944.00;;;36.60
20733;BMP180;10527;52.124;5.196;2022-09-01T13:16:42;101923.00;;;36.60
20733;BMP180;10527;52.124;5.196;2022-09-01T13:19:09;101922.00;;;36.70
20733;BMP180;10527;52.124;5.196;2022-09-01T13:21:37;101924.00;;;36.70
20733;BMP180;10527;52.124;5.196;2022-09-01T13:24:09;101917.00;;;36.80
20733;BMP180;10527;52.124;5.196;2022-09-01T13:26:36;101919.00;;;36.80
20733;BMP180;10527;52.124;5.196;2022-09-01T13:29:03;101928.00;;;36.80
20733;BMP180;10527;52.124;5.196;2022-09-01T13:31:30;101903.00;;;36.80
20733;BMP180;10527;52.124;5.196;2022-09-01T13:33:58;101912.00;;;36.90
20733;BMP180;10527;52.124;5.196;2022-09-01T13:36:46;101915.00;;;36.90
20733;BMP180;10527;52.124;5.196;2022-09-01T13:39:18;101904.00;;;36.90
20733;BMP180;10527;52.124;5.196;2022-09-01T13:41:47;101891.00;;;36.90
20733;BMP180;10527;52.124;5.196;2022-09-01T13:44:15;101896.00;;;36.90
20733;BMP180;10527;52.124;5.196;2022-09-01T13:46:44;101902.00;;;37.00
20733;BMP180;10527;52.124;5.196;2022-09-01T13:49:31;101895.00;;;37.00
20733;BMP180;10527;52.124;5.196;2022-09-01T13:52:19;101899.00;;;37.00
20733;BMP180;10527;52.124;5.196;2022-09-01T13:54:47;101898.00;;;37.10
20733;BMP180;10527;52.124;5.196;2022-09-01T13:57:14;101887.00;;;37.10
20733;BMP180;10527;52.124;5.196;2022-09-01T13:59:42;101892.00;;;37.10
20733;BMP180;10527;52.124;5.196;2022-09-01T14:02:09;101898.00;;;37.10
20733;BMP180;10527;52.124;5.196;2022-09-01T14:04:37;101897.00;;;37.20
20733;BMP180;10527;52.124;5.196;2022-09-01T14:07:04;101899.00;;;37.20
20733;BMP180;10527;52.124;5.196;2022-09-01T14:09:31;101884.00;;;37.30
20733;BMP180;10527;52.124;5.196;2022-09-01T14:11:58;101896.00;;;37.30
20733;BMP180;10527;52.124;5.196;2022-09-01T14:14:25;101884.00;;;37.30
20733;BMP180;10527;52.124;5.196;2022-09-01T14:16:52;101888.00;;;37.30
20733;BMP180;10527;52.124;5.196;2022-09-01T14:19:20;101889.00;;;37.40
20733;BMP180;10527;52.124;5.196;2022-09-01T14:21:46;101888.00;;;37.40
20733;BMP180;10527;52.124;5.196;2022-09-01T14:24:15;101881.00;;;37.40
20733;BMP180;10527;52.124;5.196;2022-09-01T14:26:46;101883.00;;;37.40
20733;BMP180;10527;52.124;5.196;2022-09-01T14:29:13;101865.00;;;37.40
20733;BMP180;10527;52.124;5.196;2022-09-01T14:31:40;101889.00;;;37.50
20733;BMP180;10527;52.124;5.196;2022-09-01T14:34:09;101886.00;;;37.50
20733;BMP180;10527;52.124;5.196;2022-09-01T14:36:39;101865.00;;;37.50
20733;BMP180;10527;52.124;5.196;2022-09-01T14:39:06;101879.00;;;37.50
20733;BMP180;10527;52.124;5.196;2022-09-01T14:41:32;101872.00;;;37.50
20733;BMP180;10527;52.124;5.196;2022-09-01T14:43:59;101870.00;;;37.50
20733;BMP180;10527;52.124;5.196;2022-09-01T14:46:30;101870.00;;;37.50
20733;BMP180;10527;52.124;5.196;2022-09-01T14:49:02;101860.00;;;37.50
20733;BMP180;10527;52.124;5.196;2022-09-01T14:51:30;101851.00;;;37.50
20733;BMP180;10527;52.124;5.196;2022-09-01T14:54:17;101846.00;;;37.50
20733;BMP180;10527;52.124;5.196;2022-09-01T14:56:44;101838.00;;;37.50
20733;BMP180;10527;52.124;5.196;2022-09-01T14:59:32;101838.00;;;37.50
20733;BMP180;10527;52.124;5.196;2022-09-01T15:01:59;101849.00;;;37.50
20733;BMP180;10527;52.124;5.196;2022-09-01T15:04:26;101838.00;;;37.50
20733;BMP180;10527;52.124;5.196;2022-09-01T15:06:54;101837.00;;;37.50
20733;BMP180;10527;52.124;5.196;2022-09-01T15:09:21;101833.00;;;37.50
20733;BMP180;10527;52.124;5.196;2022-09-01T15:11:48;101841.00;;;37.50
20733;BMP180;10527;52.124;5.196;2022-09-01T15:14:15;101834.00;;;37.50
20733;BMP180;10527;52.124;5.196;2022-09-01T15:16:41;101827.00;;;37.60
20733;BMP180;10527;52.124;5.196;2022-09-01T15:19:11;101829.00;;;37.60
20733;BMP180;10527;52.124;5.196;2022-09-01T15:21:42;101823.00;;;37.70
20733;BMP180;10527;52.124;5.196;2022-09-01T15:24:09;101821.00;;;37.70
20733;BMP180;10527;52.124;5.196;2022-09-01T15:26:38;101821.00;;;37.70
20733;BMP180;10527;52.124;5.196;2022-09-01T15:29:06;101822.00;;;37.70
20733;BMP180;10527;52.124;5.196;2022-09-01T15:31:35;101821.00;;;37.70